Time;durP1;ratioP1;P1;durP2;ratioP2;P2;SDS_P1;SDS_P2;PMS_P1;PMS_P2;Temp;Humidity;BMP_temperature;BMP_pressure;BME280_temperature;BME280_humidity;BME280_pressure;Samples;Min_cycle;Max_cycle;Signal;HPM_P1;HPM_P2
2022/06/08 00:00:21;;;;;;;4.80;3.10;;;15.00;99.90;;;;;;5071621;28;20494;-70
2022/06/08 00:02:52;;;;;;;5.63;3.47;;;15.00;99.90;;;;;;5072202;28;20479;-70
2022/06/08 00:05:19;;;;;;;5.10;3.03;;;15.00;99.90;;;;;;5071874;28;20525;-70
2022/06/08 00:07:46;;;;;;;3.43;2.70;;;15.00;99.90;;;;;;5072187;28;20443;-70
2022/06/08 00:10:13;;;;;;;3.50;2.80;;;15.00;99.90;;;;;;5071371;28;20454;-70
2022/06/08 00:12:40;;;;;;;3.80;3.00;;;15.00;99.90;;;;;;5071940;28;20493;-70
2022/06/08 00:15:08;;;;;;;4.83;3.07;;;14.90;99.90;;;;;;5071678;28;20505;-70
2022/06/08 00:17:35;;;;;;;6.90;3.10;;;14.90;99.90;;;;;;5071794;28;20477;-69
2022/06/08 00:20:04;;;;;;;4.77;2.67;;;14.90;99.90;;;;;;5071022;28;21035;-70
2022/06/08 00:22:31;;;;;;;4.43;2.80;;;14.80;99.90;;;;;;5071637;28;21010;-70
2022/06/08 00:24:58;;;;;;;3.93;2.60;;;14.90;99.90;;;;;;5071646;28;20448;-70
2022/06/08 00:27:26;;;;;;;6.20;3.37;;;14.80;99.90;;;;;;5072041;28;20929;-70
2022/06/08 00:29:52;;;;;;;4.60;2.90;;;14.80;99.90;;;;;;5070327;28;20818;-70
2022/06/08 00:32:19;;;;;;;4.57;3.50;;;14.90;99.90;;;;;;5071817;28;20477;-70
2022/06/08 00:34:46;;;;;;;4.50;3.37;;;14.90;99.90;;;;;;5071132;28;20492;-70
2022/06/08 00:37:14;;;;;;;6.60;3.47;;;15.00;99.90;;;;;;5071750;28;20467;-70
2022/06/08 00:39:41;;;;;;;4.07;3.50;;;15.00;99.90;;;;;;5071500;28;20446;-70
2022/06/08 00:42:11;;;;;;;3.70;3.30;;;15.00;99.90;;;;;;5071043;28;20877;-70
2022/06/08 00:44:43;;;;;;;4.43;3.27;;;15.10;99.90;;;;;;5071039;28;20450;-70
2022/06/08 00:47:12;;;;;;;4.53;3.07;;;15.10;99.90;;;;;;5071411;28;21018;-70
2022/06/08 00:49:43;;;;;;;5.50;3.50;;;15.20;99.90;;;;;;5071118;28;20457;-70
2022/06/08 00:52:11;;;;;;;5.53;3.60;;;15.20;99.90;;;;;;5071084;28;20478;-71
2022/06/08 00:54:42;;;;;;;5.27;3.00;;;15.20;99.90;;;;;;5070751;28;20542;-70
2022/06/08 00:57:13;;;;;;;3.87;3.17;;;15.20;99.90;;;;;;5071289;28;20890;-71
2022/06/08 00:59:44;;;;;;;3.87;3.20;;;15.20;99.90;;;;;;5071148;28;20461;-70
2022/06/08 01:02:11;;;;;;;3.80;2.70;;;15.10;99.90;;;;;;5070693;28;20574;-70
2022/06/08 01:04:38;;;;;;;3.20;2.60;;;15.10;99.90;;;;;;5070801;28;20446;-71
2022/06/08 01:07:05;;;;;;;4.23;3.00;;;15.10;99.90;;;;;;5071089;28;20446;-70
2022/06/08 01:09:36;;;;;;;4.40;2.80;;;15.10;99.90;;;;;;5070981;28;20443;-70
2022/06/08 01:12:11;;;;;;;4.67;2.60;;;15.00;99.90;;;;;;5070136;28;20470;-70
2022/06/08 01:14:39;;;;;;;3.53;2.93;;;15.10;99.90;;;;;;5070411;28;20963;-70
2022/06/08 01:17:09;;;;;;;5.43;3.63;;;15.00;99.90;;;;;;5071080;28;20444;-70
2022/06/08 01:19:38;;;;;;;5.03;2.93;;;15.00;99.90;;;;;;5071091;28;20461;-70
2022/06/08 01:22:09;;;;;;;3.90;2.40;;;14.90;99.90;;;;;;5070354;28;20470;-69
2022/06/08 01:24:36;;;;;;;3.97;2.60;;;14.90;99.90;;;;;;5070894;28;20526;-70
2022/06/08 01:27:42;;;;;;;3.93;2.70;;;14.90;99.90;;;;;;5070832;28;20941;-70
2022/06/08 01:30:18;;;;;;;4.53;3.50;;;14.80;99.90;;;;;;5070081;28;20454;-70
2022/06/08 01:33:09;;;;;;;4.60;2.90;;;14.70;99.90;;;;;;5070760;28;20453;-70
2022/06/08 01:35:43;;;;;;;3.70;2.97;;;14.60;99.90;;;;;;5070314;28;20483;-70
2022/06/08 01:38:18;;;;;;;6.27;2.87;;;14.50;99.90;;;;;;5070797;28;20446;-70
2022/06/08 01:41:06;;;;;;;5.43;3.23;;;14.50;99.90;;;;;;5069683;28;20471;-70
2022/06/08 01:43:45;;;;;;;4.60;3.03;;;14.50;99.90;;;;;;5070470;28;20444;-71
2022/06/08 01:46:23;;;;;;;4.50;2.77;;;14.50;99.90;;;;;;5070169;28;20789;-69
2022/06/08 01:49:18;;;;;;;3.33;2.93;;;14.50;99.90;;;;;;5070451;28;20882;-70
2022/06/08 01:52:04;;;;;;;4.23;3.20;;;14.50;99.90;;;;;;5055791;28;20499;-71
2022/06/08 01:54:49;;;;;;;4.50;2.63;;;14.50;99.90;;;;;;5069983;28;20446;-70
2022/06/08 01:57:28;;;;;;;5.90;3.30;;;14.40;99.90;;;;;;5070101;28;20486;-70
2022/06/08 02:00:02;;;;;;;5.17;2.63;;;14.40;99.90;;;;;;5069293;28;20462;-70
2022/06/08 02:02:36;;;;;;;4.00;3.00;;;14.30;99.90;;;;;;5069675;28;20459;-69
2022/06/08 02:05:10;;;;;;;4.07;3.23;;;14.30;99.90;;;;;;5069786;28;20438;-71
2022/06/08 02:07:44;;;;;;;5.87;3.13;;;14.30;99.90;;;;;;5069947;28;20443;-70
2022/06/08 02:10:23;;;;;;;4.83;3.10;;;14.30;99.90;;;;;;5069120;28;20439;-70
2022/06/08 02:12:53;;;;;;;4.37;3.00;;;14.30;99.90;;;;;;5069864;28;20453;-70
2022/06/08 02:15:25;;;;;;;4.10;3.00;;;14.20;99.90;;;;;;5069509;28;20474;-70
2022/06/08 02:17:55;;;;;;;3.70;2.90;;;14.20;99.90;;;;;;5070200;28;20443;-70
2022/06/08 02:20:30;;;;;;;4.50;3.67;;;14.20;99.90;;;;;;5068976;28;20455;-71
2022/06/08 02:23:03;;;;;;;6.00;3.40;;;14.20;99.90;;;;;;5069773;28;20534;-70
2022/06/08 02:25:39;;;;;;;4.00;2.73;;;14.20;99.90;;;;;;5069247;28;20439;-70
2022/06/08 02:28:12;;;;;;;3.80;2.83;;;14.20;99.90;;;;;;5069929;28;20454;-70
2022/06/08 02:30:43;;;;;;;4.77;2.80;;;14.20;99.90;;;;;;5068910;28;20925;-70
2022/06/08 02:36:10;;;;;;;4.80;3.43;;;14.30;99.90;;;;;;5069276;28;20474;-71
2022/06/08 02:38:41;;;;;;;6.30;3.20;;;14.20;99.90;;;;;;5069650;28;20833;-71
2022/06/08 02:41:11;;;;;;;4.03;3.43;;;14.10;99.90;;;;;;5068750;28;20459;-71
2022/06/08 02:43:43;;;;;;;5.40;3.63;;;14.10;99.90;;;;;;5069658;28;21157;-71
2022/06/08 02:46:18;;;;;;;5.03;3.13;;;14.00;99.90;;;;;;5069136;28;20445;-71
2022/06/08 02:48:45;;;;;;;4.73;3.70;;;14.00;99.90;;;;;;5069753;28;20450;-71
2022/06/08 02:51:12;;;;;;;6.73;3.97;;;14.00;99.90;;;;;;5068670;28;20470;-71
2022/06/08 02:53:50;;;;;;;4.87;3.90;;;14.00;99.90;;;;;;5071072;28;20830;-71
2022/06/08 02:56:33;;;;;;;3.63;3.20;;;14.00;99.90;;;;;;5073042;28;20490;-71
2022/06/08 02:59:06;;;;;;;5.43;3.80;;;14.00;99.90;;;;;;5073538;28;20968;-71
2022/06/08 03:01:38;;;;;;;5.80;3.57;;;14.00;99.90;;;;;;5072452;28;20474;-71
2022/06/08 03:04:09;;;;;;;4.07;3.67;;;14.00;99.90;;;;;;5073427;28;20454;-71
2022/06/08 03:06:41;;;;;;;3.53;3.07;;;14.00;99.90;;;;;;5073018;28;20820;-71
2022/06/08 03:09:13;;;;;;;4.80;3.93;;;14.00;99.90;;;;;;5073149;28;20443;-71
2022/06/08 03:11:45;;;;;;;4.53;3.50;;;13.90;99.90;;;;;;5072215;28;21048;-71
2022/06/08 03:14:16;;;;;;;5.53;4.40;;;13.90;99.90;;;;;;5073296;28;20474;-72
2022/06/08 03:16:53;;;;;;;4.13;3.47;;;13.90;99.90;;;;;;5073088;28;20489;-71
2022/06/08 03:19:21;;;;;;;5.60;3.63;;;13.90;99.90;;;;;;5072976;28;21009;-71
2022/06/08 03:21:48;;;;;;;4.80;4.30;;;13.90;99.90;;;;;;5072365;28;20485;-70
2022/06/08 03:24:17;;;;;;;5.50;4.03;;;13.90;99.90;;;;;;5072948;28;20450;-71
2022/06/08 03:26:49;;;;;;;7.27;3.67;;;13.90;99.90;;;;;;5072862;28;21025;-71
2022/06/08 03:29:16;;;;;;;5.73;3.57;;;13.90;99.90;;;;;;5072891;28;20447;-71
2022/06/08 03:31:43;;;;;;;4.73;3.77;;;13.90;99.90;;;;;;5072276;28;20528;-71
2022/06/08 03:34:10;;;;;;;4.63;3.77;;;13.80;99.90;;;;;;5072615;28;20534;-71
2022/06/08 03:36:38;;;;;;;6.17;4.17;;;13.90;99.90;;;;;;5072204;28;20482;-71
2022/06/08 03:39:06;;;;;;;5.33;4.57;;;13.90;99.90;;;;;;5072900;28;20533;-71
2022/06/08 03:41:33;;;;;;;8.63;4.00;;;13.80;99.90;;;;;;5071626;28;20470;-71
2022/06/08 03:44:03;;;;;;;7.00;3.70;;;14.00;99.90;;;;;;5072540;28;20447;-72
2022/06/08 03:46:32;;;;;;;3.60;3.03;;;14.00;99.90;;;;;;5072003;28;20937;-71
2022/06/08 03:48:59;;;;;;;5.47;3.80;;;14.10;99.90;;;;;;5072706;28;20455;-71
2022/06/08 03:51:26;;;;;;;4.30;3.83;;;14.20;99.90;;;;;;5071815;28;20474;-72
2022/06/08 03:53:57;;;;;;;4.67;3.40;;;14.20;99.90;;;;;;5072644;28;20482;-71
2022/06/08 03:56:27;;;;;;;4.03;3.27;;;14.20;99.90;;;;;;5072393;28;20489;-71
2022/06/08 03:58:54;;;;;;;4.47;3.23;;;14.20;99.90;;;;;;5072684;28;20880;-71
2022/06/08 04:01:22;;;;;;;4.80;2.93;;;14.40;99.90;;;;;;5071772;28;20474;-71
2022/06/08 04:03:51;;;;;;;4.40;3.07;;;14.40;99.90;;;;;;5072772;28;20830;-71
2022/06/08 04:06:18;;;;;;;6.00;3.60;;;14.50;99.90;;;;;;5069139;28;21143;-71
2022/06/08 04:08:45;;;;;;;5.60;3.10;;;14.60;99.90;;;;;;5071710;28;20459;-71
2022/06/08 04:11:12;;;;;;;3.67;3.37;;;14.70;99.90;;;;;;5071617;28;20471;-71
2022/06/08 04:13:39;;;;;;;4.67;2.83;;;14.90;99.90;;;;;;5072366;28;20553;-71
2022/06/08 04:16:07;;;;;;;3.93;3.30;;;14.90;99.90;;;;;;5071860;28;20485;-70
2022/06/08 04:18:35;;;;;;;5.20;3.10;;;15.00;99.90;;;;;;5072401;28;20496;-70
2022/06/08 04:21:04;;;;;;;6.53;2.93;;;15.20;99.90;;;;;;5071208;28;20981;-71
2022/06/08 04:23:32;;;;;;;3.80;2.20;;;15.30;99.90;;;;;;5072001;28;20461;-71
2022/06/08 04:26:00;;;;;;;5.30;2.97;;;15.40;99.90;;;;;;5071529;28;20824;-71
2022/06/08 04:28:28;;;;;;;5.20;2.70;;;15.50;99.90;;;;;;5071678;28;20454;-71
2022/06/08 04:30:55;;;;;;;6.17;2.80;;;15.50;99.90;;;;;;5071133;28;20506;-71
2022/06/08 04:33:22;;;;;;;6.10;2.50;;;15.60;99.90;;;;;;5071705;28;20546;-71
2022/06/08 04:35:50;;;;;;;5.80;2.43;;;15.60;99.90;;;;;;5071378;28;20462;-71
2022/06/08 04:38:17;;;;;;;6.90;3.17;;;15.70;99.90;;;;;;5071514;28;20443;-71
2022/06/08 04:40:45;;;;;;;3.10;2.70;;;15.80;99.90;;;;;;5070717;28;20479;-71
2022/06/08 04:43:13;;;;;;;4.13;3.00;;;15.80;99.90;;;;;;5071445;28;20445;-71
2022/06/08 04:45:40;;;;;;;4.00;2.90;;;15.80;99.90;;;;;;5071065;28;20984;-71
2022/06/08 04:48:08;;;;;;;3.63;2.70;;;15.80;99.90;;;;;;5071718;28;20439;-71
2022/06/08 04:50:35;;;;;;;5.60;3.33;;;15.80;99.90;;;;;;5070682;28;20524;-71
2022/06/08 04:53:04;;;;;;;6.90;3.63;;;15.80;99.90;;;;;;5071392;28;20470;-70
2022/06/08 04:55:32;;;;;;;5.00;2.90;;;15.80;99.90;;;;;;5071337;28;20487;-70
2022/06/08 04:58:01;;;;;;;5.67;3.10;;;15.60;99.90;;;;;;5072154;28;20566;-70
2022/06/08 05:00:28;;;;;;;7.00;2.70;;;15.60;99.90;;;;;;5070362;28;20592;-70
2022/06/08 05:02:55;;;;;;;4.90;3.10;;;15.60;99.90;;;;;;5071029;28;20526;-70
2022/06/08 05:05:25;;;;;;;5.93;3.10;;;15.60;99.90;;;;;;5070911;28;20554;-70
2022/06/08 05:07:52;;;;;;;4.50;2.70;;;15.60;99.90;;;;;;5071061;28;20443;-70
2022/06/08 05:10:22;;;;;;;5.10;3.03;;;15.70;99.90;;;;;;5070179;28;20558;-69
2022/06/08 05:12:49;;;;;;;6.27;3.20;;;15.70;99.90;;;;;;5071298;28;20980;-69
2022/06/08 05:15:19;;;;;;;5.03;3.13;;;15.70;99.90;;;;;;5070584;28;20814;-70
2022/06/08 05:17:46;;;;;;;4.30;2.70;;;15.60;99.90;;;;;;5070553;28;21101;-70
2022/06/08 05:20:16;;;;;;;4.43;2.90;;;15.60;99.90;;;;;;5070169;28;20451;-70
2022/06/08 05:22:43;;;;;;;5.07;3.17;;;15.70;99.90;;;;;;5070922;28;20829;-70
2022/06/08 05:25:14;;;;;;;5.67;2.80;;;15.70;99.90;;;;;;5070507;28;20821;-69
2022/06/08 05:27:42;;;;;;;5.37;2.83;;;15.60;99.90;;;;;;5070720;28;20535;-70
2022/06/08 05:30:10;;;;;;;4.33;2.83;;;15.60;99.90;;;;;;5069810;28;20447;-69
2022/06/08 05:32:37;;;;;;;3.70;2.90;;;15.60;99.90;;;;;;5070518;28;20867;-69
2022/06/08 05:35:06;;;;;;;4.93;3.00;;;15.80;99.90;;;;;;5069948;28;20538;-69
2022/06/08 05:37:32;;;;;;;6.23;3.13;;;16.00;99.90;;;;;;5070545;28;20485;-70
2022/06/08 05:39:59;;;;;;;8.50;3.43;;;16.20;99.90;;;;;;5069676;28;20451;-68
2022/06/08 05:42:26;;;;;;;5.30;3.60;;;16.40;99.90;;;;;;5070414;28;20466;-69
2022/06/08 05:44:56;;;;;;;4.40;3.10;;;16.50;99.90;;;;;;5069930;28;20526;-70
2022/06/08 05:47:23;;;;;;;5.00;2.90;;;16.60;99.90;;;;;;5070360;28;20447;-69
2022/06/08 05:49:50;;;;;;;5.63;2.57;;;16.50;99.90;;;;;;5069393;28;20481;-69
2022/06/08 05:52:17;;;;;;;6.13;3.03;;;16.50;99.90;;;;;;5070133;28;20471;-72
2022/06/08 05:54:44;;;;;;;5.00;3.17;;;16.50;99.90;;;;;;5069873;28;20455;-70
2022/06/08 05:57:12;;;;;;;3.70;2.97;;;16.60;99.90;;;;;;5070041;28;21016;-70
2022/06/08 05:59:39;;;;;;;5.77;3.03;;;16.60;99.90;;;;;;5069979;28;20968;-68
2022/06/08 06:02:08;;;;;;;7.43;2.73;;;16.70;99.90;;;;;;5069184;28;20486;-70
2022/06/08 06:04:35;;;;;;;5.37;3.07;;;16.90;99.90;;;;;;5069886;28;20451;-70
2022/06/08 06:07:03;;;;;;;10.73;3.43;;;17.10;99.90;;;;;;5070005;28;20471;-70
2022/06/08 06:09:32;;;;;;;8.00;2.80;;;17.20;99.90;;;;;;5070001;28;20450;-70
2022/06/08 06:11:59;;;;;;;5.53;3.67;;;17.30;99.90;;;;;;5069454;28;20479;-70
2022/06/08 06:14:26;;;;;;;4.73;2.60;;;17.50;99.90;;;;;;5069733;28;20447;-70
2022/06/08 06:16:53;;;;;;;3.70;2.27;;;17.70;99.90;;;;;;5069722;28;20478;-69
2022/06/08 06:19:21;;;;;;;3.83;2.03;;;17.90;99.90;;;;;;5069982;28;20534;-70
2022/06/08 06:21:48;;;;;;;5.40;2.47;;;18.00;99.90;;;;;;5069084;28;20493;-70
2022/06/08 06:24:15;;;;;;;3.80;2.10;;;18.20;99.90;;;;;;5069789;28;20443;-70
2022/06/08 06:26:42;;;;;;;4.37;2.10;;;18.30;99.90;;;;;;5069918;28;20440;-70
2022/06/08 06:29:10;;;;;;;4.73;2.47;;;18.40;99.90;;;;;;5069075;28;20451;-70
2022/06/08 06:31:41;;;;;;;3.60;2.10;;;18.50;99.90;;;;;;5069063;28;20467;-70
2022/06/08 06:34:10;;;;;;;5.93;2.40;;;18.60;99.90;;;;;;5069928;28;20454;-70
2022/06/08 06:36:39;;;;;;;4.60;2.47;;;18.70;99.90;;;;;;5069533;28;20904;-70
2022/06/08 06:39:06;;;;;;;4.40;2.03;;;18.80;99.90;;;;;;5070004;28;20550;-70
2022/06/08 06:41:33;;;;;;;6.13;2.50;;;18.80;99.90;;;;;;5069212;28;20467;-71
2022/06/08 06:44:00;;;;;;;7.63;2.10;;;18.80;99.90;;;;;;5069894;28;20481;-70
2022/06/08 06:46:27;;;;;;;6.87;2.57;;;18.80;99.90;;;;;;5069699;28;20451;-71
2022/06/08 06:48:54;;;;;;;5.07;1.93;;;19.00;99.90;;;;;;5070020;28;20442;-70
2022/06/08 06:51:20;;;;;;;6.80;2.33;;;19.20;99.90;;;;;;5069094;28;20459;-71
2022/06/08 06:53:49;;;;;;;4.00;2.30;;;19.20;99.90;;;;;;5069781;28;20454;-71
2022/06/08 06:56:16;;;;;;;8.80;2.30;;;19.20;99.90;;;;;;5069436;28;20827;-70
2022/06/08 06:58:48;;;;;;;4.30;1.80;;;19.30;99.90;;;;;;5069656;28;20486;-71
2022/06/08 07:01:15;;;;;;;7.93;2.00;;;19.30;99.90;;;;;;5068817;28;20483;-70
2022/06/08 07:03:42;;;;;;;4.83;1.97;;;19.50;99.90;;;;;;5069575;28;20881;-70
2022/06/08 07:06:09;;;;;;;3.03;1.80;;;19.50;99.90;;;;;;5069345;28;20446;-70
2022/06/08 07:08:36;;;;;;;5.83;2.90;;;19.50;99.90;;;;;;5069439;28;20447;-70
2022/06/08 07:13:49;;;;;;;3.90;1.80;;;19.70;99.90;;;;;;5069519;28;20434;-70
2022/06/08 07:16:15;;;;;;;4.60;2.17;;;19.70;99.90;;;;;;5069137;28;20493;-71
2022/06/08 07:18:42;;;;;;;5.97;2.40;;;19.70;99.90;;;;;;5069338;28;20482;-71
2022/06/08 07:21:11;;;;;;;3.60;1.70;;;19.70;99.90;;;;;;5068439;28;20586;-70
2022/06/08 07:23:38;;;;;;;4.30;1.63;;;19.60;99.90;;;;;;5069178;28;20447;-70
2022/06/08 07:26:06;;;;;;;4.43;1.70;;;19.70;99.90;;;;;;5069089;28;20832;-70
2022/06/08 07:28:33;;;;;;;6.07;2.27;;;19.70;99.90;;;;;;5069478;28;20972;-71
2022/06/08 07:31:01;;;;;;;6.33;2.23;;;19.70;99.90;;;;;;5068691;28;20844;-71
2022/06/08 07:33:28;;;;;;;7.43;2.20;;;19.80;99.90;;;;;;5069219;28;20846;-71
2022/06/08 07:35:55;;;;;;;6.73;2.60;;;19.70;99.90;;;;;;5068820;28;20458;-71
2022/06/08 07:38:22;;;;;;;8.70;2.80;;;19.70;99.90;;;;;;5069132;28;20564;-71
2022/06/08 07:40:49;;;;;;;5.03;2.43;;;19.80;99.90;;;;;;5071593;28;20566;-71
2022/06/08 07:43:17;;;;;;;4.13;2.37;;;19.80;99.90;;;;;;5072676;28;20449;-70
2022/06/08 07:45:44;;;;;;;6.00;2.37;;;19.80;99.90;;;;;;5072323;28;20450;-71
2022/06/08 07:50:56;;;;;;;4.63;2.60;;;19.80;99.90;;;;;;5071824;28;21070;-70
2022/06/08 07:53:22;;;;;;;5.10;2.10;;;19.90;99.90;;;;;;5072647;28;20451;-70
2022/06/08 07:55:49;;;;;;;5.00;2.40;;;19.80;99.90;;;;;;5072252;28;20538;-70
2022/06/08 07:58:18;;;;;;;5.17;1.73;;;19.90;99.90;;;;;;5072582;28;20475;-70
2022/06/08 08:00:47;;;;;;;12.37;2.57;;;20.00;99.90;;;;;;5071636;28;20590;-69
2022/06/08 08:03:14;;;;;;;3.90;1.77;;;20.00;99.90;;;;;;5072344;28;20928;-69
2022/06/08 08:05:41;;;;;;;4.40;1.70;;;20.10;99.90;;;;;;5071778;28;20447;-70
2022/06/08 08:08:08;;;;;;;6.90;2.30;;;20.10;99.90;;;;;;5072324;28;20496;-69
2022/06/08 08:10:35;;;;;;;5.30;2.90;;;20.10;99.90;;;;;;5071641;28;20538;-69
2022/06/08 08:13:02;;;;;;;5.20;2.10;;;20.10;99.90;;;;;;5072328;28;20546;-69
2022/06/08 08:15:31;;;;;;;5.20;2.87;;;20.10;99.90;;;;;;5071431;28;20457;-69
2022/06/08 08:17:57;;;;;;;4.07;2.30;;;20.20;99.90;;;;;;5072054;28;20486;-69
2022/06/08 08:20:26;;;;;;;8.07;2.43;;;20.30;99.90;;;;;;5071226;28;20447;-70
2022/06/08 08:22:53;;;;;;;4.57;2.37;;;20.40;99.90;;;;;;5071922;28;20542;-69
2022/06/08 08:25:19;;;;;;;7.80;2.50;;;20.60;99.90;;;;;;5071522;28;20458;-70
2022/06/08 08:27:47;;;;;;;5.30;1.93;;;20.70;99.90;;;;;;5071846;28;20449;-69
2022/06/08 08:30:15;;;;;;;8.53;2.63;;;20.80;99.90;;;;;;5070902;28;20461;-69
2022/06/08 08:32:44;;;;;;;5.37;2.17;;;20.90;99.90;;;;;;5071790;28;20952;-70
2022/06/08 08:35:12;;;;;;;4.33;1.57;;;21.00;99.90;;;;;;5071387;28;20827;-70
2022/06/08 08:37:39;;;;;;;4.50;1.70;;;21.00;99.90;;;;;;5071684;28;20472;-69
2022/06/08 08:40:08;;;;;;;4.00;1.90;;;21.20;99.90;;;;;;5070719;28;20455;-70
2022/06/08 08:42:36;;;;;;;3.90;2.30;;;21.30;99.90;;;;;;5070861;28;20529;-70
2022/06/08 08:45:07;;;;;;;6.87;2.30;;;21.20;99.90;;;;;;5071001;28;20447;-70
2022/06/08 08:47:46;;;;;;;6.60;2.20;;;21.10;99.90;;;;;;5071499;28;20457;-70
2022/06/08 08:50:20;;;;;;;5.30;1.70;;;21.10;99.90;;;;;;5070496;28;20443;-69
2022/06/08 08:52:52;;;;;;;3.83;2.00;;;20.90;99.90;;;;;;5070988;28;20443;-69
2022/06/08 08:55:28;;;;;;;4.50;2.10;;;21.00;99.90;;;;;;5070824;28;20453;-71
2022/06/08 08:57:57;;;;;;;4.40;1.70;;;21.20;99.90;;;;;;5071068;28;20482;-72
2022/06/08 09:00:35;;;;;;;5.87;1.90;;;21.40;99.90;;;;;;5070335;28;20466;-70
2022/06/08 09:03:18;;;;;;;4.03;2.10;;;21.70;99.90;;;;;;5071235;28;20458;-70
2022/06/08 09:05:49;;;;;;;5.80;2.07;;;21.90;99.90;;;;;;5071089;28;20483;-72
2022/06/08 09:08:18;;;;;;;4.93;1.93;;;22.20;99.90;;;;;;5071498;28;20863;-72
2022/06/08 09:10:45;;;;;;;5.53;2.17;;;22.40;99.90;;;;;;5070496;28;20554;-72
2022/06/08 09:13:15;;;;;;;4.80;1.47;;;22.50;99.90;;;;;;5071182;28;20483;-70
2022/06/08 09:15:46;;;;;;;5.07;2.10;;;22.70;99.90;;;;;;5070778;28;20537;-70
2022/06/08 09:18:29;;;;;;;3.07;1.40;;;22.70;99.90;;;;;;5070994;28;21030;-69
2022/06/08 09:20:57;;;;;;;3.87;1.80;;;22.80;99.90;;;;;;5070273;28;20465;-70
2022/06/08 09:23:35;;;;;;;4.87;1.67;;;22.80;99.90;;;;;;5071138;28;20660;-70
2022/06/08 09:26:07;;;;;;;17.13;3.37;;;22.90;99.90;;;;;;5070575;28;20944;-70
2022/06/08 09:28:34;;;;;;;3.40;1.77;;;23.00;99.90;;;;;;5070876;28;20534;-70
2022/06/08 09:31:01;;;;;;;2.90;1.63;;;23.10;99.90;;;;;;5070097;28;20462;-69
2022/06/08 09:33:34;;;;;;;4.00;1.63;;;23.20;99.90;;;;;;5070865;28;20439;-70
2022/06/08 09:36:06;;;;;;;3.33;1.40;;;23.30;99.90;;;;;;5070101;28;20501;-67
2022/06/08 09:38:37;;;;;;;3.77;1.30;;;23.10;99.90;;;;;;5070409;28;20999;-70
2022/06/08 09:41:14;;;;;;;5.80;1.83;;;23.20;99.90;;;;;;5069570;28;20900;-72
2022/06/08 09:44:11;;;;;;;3.70;2.07;;;23.30;99.90;;;;;;5070377;28;20435;-70
2022/06/08 09:52:38;;;;;;;3.80;1.90;;;24.00;99.90;;;;;;5070435;28;20530;-70
2022/06/08 09:55:17;;;;;;;3.10;1.30;;;24.40;99.40;;;;;;5069795;28;20504;-69
2022/06/08 09:57:52;;;;;;;3.73;1.40;;;25.00;98.50;;;;;;5069852;28;20493;-70
2022/06/08 10:00:30;;;;;;;4.90;1.70;;;25.50;99.80;;;;;;5069021;28;20933;-71
2022/06/08 10:03:31;;;;;;;3.90;1.70;;;26.70;96.40;;;;;;5070217;28;20500;-71
2022/06/08 10:06:07;;;;;;;3.23;1.90;;;27.50;96.50;;;;;;5069675;28;20453;-71
2022/06/08 10:08:45;;;;;;;3.97;1.20;;;28.40;94.20;;;;;;5070216;28;20441;-70
2022/06/08 10:14:04;;;;;;;4.40;1.60;;;28.20;92.30;;;;;;5069569;28;20438;-71
2022/06/08 10:16:34;;;;;;;2.93;1.20;;;28.10;93.10;;;;;;5069337;28;20446;-71
2022/06/08 10:19:07;;;;;;;5.00;1.50;;;28.80;91.80;;;;;;5069711;28;20870;-71
2022/06/08 10:21:39;;;;;;;5.50;2.00;;;28.40;92.10;;;;;;5069038;28;20467;-70
2022/06/08 10:24:14;;;;;;;6.63;2.43;;;28.40;92.30;;;;;;5069767;28;20959;-71
2022/06/08 10:26:47;;;;;;;3.90;1.40;;;28.10;91.50;;;;;;5069752;28;20439;-71
2022/06/08 10:29:21;;;;;;;4.50;1.40;;;28.00;91.10;;;;;;5069712;28;20534;-70
2022/06/08 10:31:55;;;;;;;4.90;1.83;;;28.60;90.60;;;;;;5069106;28;20501;-71
2022/06/08 10:34:24;;;;;;;4.77;1.40;;;29.20;89.80;;;;;;5069295;28;20551;-71
2022/06/08 10:36:53;;;;;;;2.87;1.40;;;29.40;87.10;;;;;;5069799;28;20519;-71
2022/06/08 10:39:23;;;;;;;2.73;1.30;;;29.40;90.30;;;;;;5069528;28;20478;-71
2022/06/08 10:44:59;;;;;;;4.03;1.57;;;29.60;82.10;;;;;;5069303;28;20418;-71
2022/06/08 10:47:30;;;;;;;2.90;1.20;;;29.70;78.00;;;;;;5069520;28;20447;-71
2022/06/08 10:50:27;;;;;;;2.17;1.33;;;29.90;78.10;;;;;;5068927;28;20453;-70
2022/06/08 10:54:52;;;;;;;2.97;1.10;;;29.80;74.90;;;;;;5069786;28;20453;-70
2022/06/08 10:55:44;;;;;;;3.50;1.47;;;29.40;73.90;;;;;;5069052;28;20446;-71
2022/06/08 10:58:15;;;;;;;2.43;1.33;;;28.30;77.90;;;;;;5069283;28;20570;-70
2022/06/08 11:01:05;;;;;;;3.00;1.13;;;28.60;83.00;;;;;;5068683;28;20514;-71
2022/06/08 11:03:51;;;;;;;5.30;1.30;;;29.00;76.00;;;;;;5069486;28;20449;-71
2022/06/08 11:07:04;;;;;;;5.50;1.87;;;29.40;75.80;;;;;;5069071;28;20538;-71
2022/06/08 11:10:03;;;;;;;2.17;1.00;;;29.90;73.90;;;;;;5069490;28;20837;-71
2022/06/08 11:13:14;;;;;;;4.50;1.10;;;30.50;73.20;;;;;;5057108;28;20478;-70
2022/06/08 11:15:48;;;;;;;4.67;1.60;;;30.30;69.70;;;;;;5072345;28;20482;-71
2022/06/08 11:18:37;;;;;;;5.10;2.80;;;30.20;77.90;;;;;;5073081;28;20475;-70
2022/06/08 11:21:38;;;;;;;6.60;1.40;;;30.70;71.30;;;;;;5072130;28;20562;-70
2022/06/08 11:24:17;;;;;;;4.03;1.40;;;30.10;66.50;;;;;;5070560;28;20497;-70
2022/06/08 11:26:50;;;;;;;2.43;1.10;;;29.60;71.30;;;;;;5072893;28;20962;-70
2022/06/08 11:29:41;;;;;;;6.60;1.30;;;29.00;73.90;;;;;;5072804;28;20445;-70
2022/06/08 11:32:26;;;;;;;3.60;1.20;;;28.30;73.90;;;;;;5072599;28;20818;-70
2022/06/08 11:35:27;;;;;;;3.63;1.47;;;27.70;72.90;;;;;;5072527;28;20482;-71
2022/06/08 11:38:06;;;;;;;3.47;1.13;;;27.60;78.40;;;;;;5068089;28;20961;-71
2022/06/08 11:40:35;;;;;;;3.13;1.20;;;27.80;79.10;;;;;;5071768;28;20549;-70
2022/06/08 11:43:27;;;;;;;3.10;1.27;;;27.80;77.30;;;;;;5072725;28;20447;-70
2022/06/08 11:45:58;;;;;;;2.47;1.00;;;27.00;73.30;;;;;;5072285;28;20469;-71
2022/06/08 11:48:27;;;;;;;3.47;1.50;;;26.40;74.90;;;;;;5072997;28;20553;-71
2022/06/08 11:50:56;;;;;;;3.70;1.50;;;26.50;79.80;;;;;;5072118;28;20949;-71
2022/06/08 11:53:28;;;;;;;2.90;1.33;;;26.80;80.00;;;;;;5072804;28;20483;-71
2022/06/08 11:56:06;;;;;;;2.83;1.30;;;27.20;80.10;;;;;;5072461;28;20446;-70
2022/06/08 11:58:36;;;;;;;3.03;1.00;;;27.40;78.30;;;;;;5072627;28;20908;-71
2022/06/08 12:01:10;;;;;;;4.07;1.53;;;27.90;76.30;;;;;;5071802;28;20586;-71
2022/06/08 12:03:42;;;;;;;3.37;1.50;;;28.20;70.40;;;;;;5072791;28;20443;-71
2022/06/08 12:06:18;;;;;;;3.43;1.10;;;27.70;70.70;;;;;;5072224;28;20534;-72
2022/06/08 12:08:48;;;;;;;2.63;1.20;;;27.50;73.40;;;;;;5072433;28;20441;-71
2022/06/08 12:11:18;;;;;;;11.90;3.13;;;27.10;72.90;;;;;;5071666;28;20494;-70
2022/06/08 12:13:53;;;;;;;3.50;1.20;;;26.60;72.40;;;;;;5072594;28;20463;-69
2022/06/08 12:16:27;;;;;;;3.30;1.10;;;26.40;74.80;;;;;;5071954;28;20459;-69
2022/06/08 12:18:56;;;;;;;2.67;1.30;;;26.60;75.60;;;;;;5072051;28;20478;-70
2022/06/08 12:21:26;;;;;;;2.83;1.03;;;27.30;74.90;;;;;;5071034;28;20474;-70
2022/06/08 12:24:00;;;;;;;4.37;1.50;;;28.20;76.20;;;;;;5072228;28;20453;-70
2022/06/08 12:26:36;;;;;;;3.23;1.40;;;28.90;70.40;;;;;;5070295;28;20451;-70
2022/06/08 12:29:25;;;;;;;3.00;2.03;;;28.80;68.70;;;;;;5071913;28;20510;-69
2022/06/08 12:32:17;;;;;;;2.67;1.40;;;28.20;65.10;;;;;;5070753;28;20467;-70
2022/06/08 12:34:46;;;;;;;3.97;1.67;;;27.50;68.50;;;;;;5071609;28;20454;-70
2022/06/08 12:37:36;;;;;;;4.00;1.00;;;27.40;74.20;;;;;;5071815;28;20454;-70
2022/06/08 12:40:23;;;;;;;2.40;1.13;;;27.30;71.20;;;;;;5070673;28;20532;-70
2022/06/08 12:42:53;;;;;;;4.23;1.23;;;26.60;73.50;;;;;;5071798;28;20884;-70
2022/06/08 12:45:33;;;;;;;5.00;1.40;;;26.20;74.40;;;;;;5071142;28;20443;-70
2022/06/08 12:48:15;;;;;;;2.50;1.10;;;26.00;79.00;;;;;;5071504;28;21220;-71
2022/06/08 12:50:42;;;;;;;2.83;1.20;;;25.60;72.90;;;;;;5070723;28;20463;-70
2022/06/08 12:53:09;;;;;;;2.53;1.30;;;25.30;75.70;;;;;;5071521;28;20451;-71
2022/06/08 12:55:39;;;;;;;4.63;1.30;;;25.30;76.50;;;;;;5071042;28;20446;-70
2022/06/08 12:58:06;;;;;;;1.90;1.10;;;25.30;73.10;;;;;;5071220;28;20959;-71
2022/06/08 13:00:36;;;;;;;5.50;1.50;;;25.80;71.90;;;;;;5070049;28;20835;-70
2022/06/08 13:03:15;;;;;;;3.30;1.50;;;26.80;76.40;;;;;;5071146;28;20450;-71
2022/06/08 13:05:42;;;;;;;3.90;1.20;;;27.10;76.20;;;;;;5070861;28;20454;-71
2022/06/08 13:08:15;;;;;;;2.80;1.20;;;27.30;73.00;;;;;;5071302;28;20483;-71
2022/06/08 13:10:44;;;;;;;4.23;1.30;;;27.30;72.10;;;;;;5070394;28;20467;-71
2022/06/08 13:13:19;;;;;;;2.53;1.03;;;26.70;68.60;;;;;;5070938;28;21027;-71
2022/06/08 13:15:47;;;;;;;2.80;1.20;;;25.80;72.90;;;;;;5070758;28;20442;-71
2022/06/08 13:18:18;;;;;;;2.60;1.10;;;25.50;72.70;;;;;;5071139;28;20454;-71
2022/06/08 13:20:47;;;;;;;2.20;0.90;;;25.60;77.40;;;;;;5070079;28;20509;-71
2022/06/08 13:23:14;;;;;;;4.00;1.53;;;25.80;79.40;;;;;;5070947;28;20454;-69
2022/06/08 13:25:43;;;;;;;4.93;1.20;;;25.80;75.80;;;;;;5070595;28;20494;-71
2022/06/08 13:28:14;;;;;;;3.97;1.47;;;26.00;80.90;;;;;;5070767;28;20469;-70